Terminal Aerodrome Forecast
Issued by NWS

Home | Current Version | Previous Version | Text Only | Print | Product List | Glossary On
Versions: 1 2 3 4 5 6 7 8 9 10 11 12 13 14
595
FTUS43 KSGF 311720
TAFBBG
TAF
KBBG 311720Z 3118/0118 16006KT P6SM VCTS BKN035CB
      TEMPO 0101/0105 4SM TSRA OVC025CB
     FM010900 VRB03KT 3SM BR VCSH OVC025
     FM011400 27004KT P6SM -SHRA VCTS OVC030CB=

USA.gov is the U.S. government's official web portal to all federal, state and local government web resources and services.